Time;durP1;ratioP1;P1;durP2;ratioP2;P2;SDS_P1;SDS_P2;PMS_P1;PMS_P2;Temp;Humidity;BMP_temperature;BMP_pressure;BME280_temperature;BME280_humidity;BME280_pressure;Samples;Min_cycle;Max_cycle;Signal;HPM_P1;HPM_P2
2023/12/02 00:01:34;;;;;;;;;33.25;25.50;;;;;2.48;56.57;100272.34;4957692;28;63289;-63
2023/12/02 00:04:00;;;;;;;;;38.25;24.50;;;;;2.44;56.90;100262.88;4960904;28;45476;-63
2023/12/02 00:06:25;;;;;;;;;38.75;24.25;;;;;2.44;56.84;100265.44;4961659;28;45493;-64
2023/12/02 00:08:51;;;;;;;;;22.00;17.00;;;;;2.46;56.97;100268.88;4959040;28;46870;-62
2023/12/02 00:11:16;;;;;;;;;34.50;21.00;;;;;2.42;56.66;100262.88;4958237;28;45160;-62
2023/12/02 00:13:41;;;;;;;;;32.50;23.25;;;;;2.44;56.94;100266.34;4961286;28;45805;-63
2023/12/02 00:16:07;;;;;;;;;37.50;31.50;;;;;2.47;56.88;100270.63;4960886;28;52832;-63
2023/12/02 00:18:33;;;;;;;;;29.75;20.75;;;;;2.45;56.54;100268.03;4961364;28;47794;-63
2023/12/02 00:20:58;;;;;;;;;29.75;22.25;;;;;2.45;56.67;100272.34;4956487;28;63153;-63
2023/12/02 00:23:23;;;;;;;;;32.00;25.00;;;;;2.45;56.52;100269.78;4967281;28;45412;-62
2023/12/02 00:25:49;;;;;;;;;30.50;24.50;;;;;2.42;56.77;100274.94;4959219;28;67675;-61
2023/12/02 00:28:14;;;;;;;;;37.00;24.25;;;;;2.43;56.43;100274.94;4961393;28;46067;-61
2023/12/02 00:30:40;;;;;;;;;28.00;19.25;;;;;2.45;56.72;100272.34;4960149;28;57081;-63
2023/12/02 00:33:05;;;;;;;;;36.75;32.00;;;;;2.47;56.38;100281.81;4961581;28;45578;-61
2023/12/02 00:35:30;;;;;;;;;47.75;32.75;;;;;2.46;56.69;100271.47;4957937;28;59868;-62
2023/12/02 00:37:56;;;;;;;;;34.00;24.00;;;;;2.46;56.61;100276.63;4961421;28;46612;-63
2023/12/02 00:40:21;;;;;;;;;32.50;26.25;;;;;2.50;56.90;100275.78;4975722;28;64515;-62
2023/12/02 00:42:46;;;;;;;;;45.25;27.50;;;;;2.52;56.77;100275.78;4960636;28;45187;-61
2023/12/02 00:45:12;;;;;;;;;35.50;27.00;;;;;2.51;56.53;100269.75;4954424;28;45297;-62
2023/12/02 00:47:37;;;;;;;;;24.75;14.50;;;;;2.50;56.44;100274.91;4959145;28;74888;-63
2023/12/02 00:50:03;;;;;;;;;34.50;22.25;;;;;2.46;56.80;100282.69;4956105;28;45404;-63
2023/12/02 00:52:28;;;;;;;;;31.25;23.75;;;;;2.44;56.50;100274.09;4960142;28;45508;-63
2023/12/02 00:54:54;;;;;;;;;35.00;27.75;;;;;2.44;56.43;100280.94;4957086;28;45698;-63
2023/12/02 00:57:19;;;;;;;;;42.50;26.75;;;;;2.42;56.37;100280.94;4960986;28;46256;-62
2023/12/02 00:59:45;;;;;;;;;30.50;23.00;;;;;2.41;56.58;100278.41;4954017;28;45212;-63
2023/12/02 01:02:10;;;;;;;;;41.50;29.25;;;;;2.37;56.44;100272.34;4959814;28;57237;-63
2023/12/02 01:04:35;;;;;;;;;32.75;27.50;;;;;2.37;56.34;100277.50;4960828;28;63726;-63
2023/12/02 01:07:01;;;;;;;;;42.75;25.00;;;;;2.33;56.42;100277.53;4955184;28;46250;-63
2023/12/02 01:09:26;;;;;;;;;35.00;21.75;;;;;2.25;56.68;100280.97;4960602;28;45477;-62
2023/12/02 01:11:51;;;;;;;;;18.67;14.00;;;;;2.25;56.56;100285.28;4959759;28;69416;-62
2023/12/02 01:14:17;;;;;;;;;29.75;19.00;;;;;2.20;56.03;100279.25;4960739;28;45692;-63
2023/12/02 01:16:42;;;;;;;;;32.00;21.00;;;;;2.18;56.28;100283.53;4959160;28;46068;-63
2023/12/02 01:19:07;;;;;;;;;27.25;21.00;;;;;2.16;56.07;100285.25;4959006;28;45515;-63
2023/12/02 01:21:33;;;;;;;;;35.50;20.50;;;;;2.14;56.17;100285.25;4959584;28;45365;-63
2023/12/02 01:23:58;;;;;;;;;32.50;21.75;;;;;2.15;56.02;100299.91;4961644;28;53204;-63
2023/12/02 01:26:23;;;;;;;;;27.67;18.33;;;;;2.14;56.12;100299.91;4961286;28;74484;-64
2023/12/02 01:28:49;;;;;;;;;28.00;20.67;;;;;2.14;56.02;100295.59;4947675;28;73114;-62
2023/12/02 01:31:14;;;;;;;;;31.00;21.00;;;;;2.17;56.11;100302.50;4958896;28;47981;-62
2023/12/02 01:33:39;;;;;;;;;32.50;19.75;;;;;2.20;56.13;100299.91;4958832;28;66711;-63
2023/12/02 01:36:05;;;;;;;;;23.00;18.50;;;;;2.23;56.35;100302.47;4961055;28;58837;-62
2023/12/02 01:38:30;;;;;;;;;30.50;24.00;;;;;2.29;56.28;100305.06;4960568;28;45540;-64
2023/12/02 01:40:56;;;;;;;;;37.00;22.25;;;;;2.32;56.17;100309.34;4961916;28;45445;-61
2023/12/02 01:43:25;;;;;;;;;31.25;18.50;;;;;2.33;56.46;100316.25;4960717;28;66251;-62
2023/12/02 01:45:51;;;;;;;;;33.00;21.50;;;;;2.32;55.85;100322.28;4961528;28;46113;-62
2023/12/02 01:48:18;;;;;;;;;14.00;12.00;;;;;2.27;55.94;100324.88;4960766;28;45488;-62
2023/12/02 01:50:44;;;;;;;;;28.00;20.50;;;;;2.25;56.08;100329.19;4940187;28;45564;-62
2023/12/02 01:53:10;;;;;;;;;36.50;21.50;;;;;2.22;56.08;100331.75;4959016;28;45395;-64
2023/12/02 01:55:35;;;;;;;;;29.75;23.25;;;;;2.19;56.29;100332.59;4961027;28;45527;-61
2023/12/02 01:58:00;;;;;;;;;29.00;25.00;;;;;2.19;56.24;100342.06;4975142;28;45440;-61
2023/12/02 02:00:26;;;;;;;;;26.25;17.75;;;;;2.18;56.39;100341.22;4959952;28;51963;-61
2023/12/02 02:02:51;;;;;;;;;17.75;17.00;;;;;2.17;56.28;100357.53;4973302;28;73217;-61
2023/12/02 02:05:16;;;;;;;;;24.75;16.25;;;;;2.16;56.50;100342.06;4959373;28;69256;-61
2023/12/02 02:07:42;;;;;;;;;18.00;17.25;;;;;2.17;56.28;100351.53;4972255;28;73299;-60
2023/12/02 02:10:07;;;;;;;;;34.25;21.25;;;;;2.13;56.49;100357.56;4960789;28;45491;-62
2023/12/02 02:12:33;;;;;;;;;26.00;21.25;;;;;2.11;56.55;100365.28;4958446;28;46752;-61
2023/12/02 02:14:58;;;;;;;;;40.00;21.50;;;;;2.11;56.78;100372.16;4974615;28;59122;-62
2023/12/02 02:17:23;;;;;;;;;36.00;21.00;;;;;2.08;56.83;100373.03;4958991;28;60124;-64
2023/12/02 02:19:49;;;;;;;;;29.67;16.33;;;;;2.12;56.92;100374.75;4960033;28;65604;-61
2023/12/02 02:22:14;;;;;;;;;29.75;24.75;;;;;2.11;56.90;100383.38;4959195;28;45263;-61
2023/12/02 02:24:40;;;;;;;;;29.00;21.00;;;;;2.08;56.75;100384.19;4958990;28;61817;-61
2023/12/02 02:27:05;;;;;;;;;31.75;24.50;;;;;2.07;56.82;100381.63;4972689;28;45654;-61
2023/12/02 02:29:31;;;;;;;;;33.75;22.25;;;;;2.07;56.90;100381.63;4958959;28;45565;-61
2023/12/02 02:31:56;;;;;;;;;27.67;15.00;;;;;2.06;56.70;100383.34;4957400;28;71497;-60
2023/12/02 02:34:22;;;;;;;;;27.67;17.67;;;;;2.01;56.72;100391.94;4959037;28;74472;-61
2023/12/02 02:36:47;;;;;;;;;33.75;20.75;;;;;1.99;56.70;100391.94;4959571;28;45508;-60
2023/12/02 02:39:12;;;;;;;;;31.25;23.75;;;;;1.96;56.57;100393.66;4960401;28;45310;-61
2023/12/02 02:41:38;;;;;;;;;38.25;25.25;;;;;1.92;56.65;100395.34;4959508;28;45682;-62
2023/12/02 02:44:04;;;;;;;;;42.25;27.50;;;;;1.89;57.05;100396.22;4974495;28;47585;-61
2023/12/02 02:46:29;;;;;;;;;38.00;26.50;;;;;1.89;56.83;100392.75;4959478;28;45360;-59
2023/12/02 02:48:55;;;;;;;;;29.50;22.25;;;;;1.86;57.22;100403.94;4975268;28;45473;-59
2023/12/02 02:51:20;;;;;;;;;36.75;27.75;;;;;1.84;57.57;100408.25;4958119;28;45432;-60
2023/12/02 02:53:45;;;;;;;;;39.33;28.67;;;;;1.84;57.69;100408.25;4957620;28;72117;-62
2023/12/02 02:56:11;;;;;;;;;37.00;27.75;;;;;1.86;57.85;100410.81;4957132;28;54560;-62
2023/12/02 02:58:36;;;;;;;;;54.25;32.25;;;;;1.84;57.86;100397.94;4957576;28;69093;-62
2023/12/02 03:01:03;;;;;;;;;34.25;20.50;;;;;1.85;58.28;100409.94;4971652;28;46298;-63
2023/12/02 03:03:28;;;;;;;;;41.00;31.00;;;;;1.84;58.62;100410.81;4959226;28;46065;-62
2023/12/02 03:05:55;;;;;;;;;29.50;22.25;;;;;1.86;58.82;100415.97;4955517;28;73249;-62
2023/12/02 03:08:20;;;;;;;;;35.00;24.50;;;;;1.87;58.67;100415.13;4953393;28;45255;-63
2023/12/02 03:10:48;;;;;;;;;37.75;29.50;;;;;1.89;59.03;100416.88;4956118;28;65950;-62
2023/12/02 03:13:13;;;;;;;;;41.00;24.75;;;;;1.89;58.81;100415.97;4959358;28;46311;-63
2023/12/02 03:15:38;;;;;;;;;29.75;20.75;;;;;1.81;58.52;100402.22;4972282;28;45553;-63
2023/12/02 03:18:04;;;;;;;;;45.00;27.33;;;;;1.84;58.44;100413.41;4958586;28;68380;-62
2023/12/02 03:20:29;;;;;;;;;44.25;29.25;;;;;1.81;58.55;100413.38;4957252;28;64066;-63
2023/12/02 03:22:54;;;;;;;;;44.50;27.75;;;;;1.80;58.79;100411.66;4955508;28;75557;-62
2023/12/02 03:25:20;;;;;;;;;37.00;24.25;;;;;1.79;58.67;100414.22;4951243;28;45444;-62
2023/12/02 03:27:45;;;;;;;;;46.33;24.33;;;;;1.82;58.83;100421.97;4957516;28;68448;-62
2023/12/02 03:30:12;;;;;;;;;38.50;25.75;;;;;1.81;58.61;100430.59;4960351;28;45630;-62
2023/12/02 03:32:41;;;;;;;;;36.00;27.00;;;;;1.75;58.87;100425.38;4961007;28;46150;-63
2023/12/02 03:35:07;;;;;;;;;39.50;27.50;;;;;1.67;58.82;100421.06;4962791;28;45943;-62
2023/12/02 03:37:32;;;;;;;;;42.75;25.75;;;;;1.61;58.77;100425.31;4962151;28;45458;-62
2023/12/02 03:39:58;;;;;;;;;35.00;24.00;;;;;1.61;58.85;100436.53;4964654;28;71228;-63
2023/12/02 03:42:23;;;;;;;;;28.25;19.00;;;;;1.60;58.92;100428.78;4972167;28;65858;-62
2023/12/02 03:44:48;;;;;;;;;34.33;21.33;;;;;1.53;59.12;100435.63;4960797;28;73172;-62
2023/12/02 03:47:14;;;;;;;;;42.00;25.25;;;;;1.48;59.11;100427.00;4962805;28;67173;-62
2023/12/02 03:49:39;;;;;;;;;34.50;22.75;;;;;1.45;59.21;100426.97;4960378;28;45504;-62
2023/12/02 03:52:04;;;;;;;;;42.00;27.33;;;;;1.41;59.26;100440.72;4961375;28;73067;-60
2023/12/02 03:54:30;;;;;;;;;19.50;16.25;;;;;1.35;59.34;100444.13;4953803;28;45457;-60
2023/12/02 03:56:55;;;;;;;;;35.67;21.33;;;;;1.25;59.39;100438.03;4959089;28;67620;-61
2023/12/02 03:59:20;;;;;;;;;38.00;27.33;;;;;1.20;59.64;100446.59;4973580;28;73111;-62
2023/12/02 04:01:46;;;;;;;;;28.00;23.00;;;;;1.18;59.95;100444.00;4961159;28;69121;-63
2023/12/02 04:04:11;;;;;;;;;44.50;26.50;;;;;1.13;59.92;100449.13;4961906;28;45476;-62
2023/12/02 04:06:37;;;;;;;;;46.50;28.25;;;;;1.10;60.32;100454.25;4961697;28;52645;-62
2023/12/02 04:09:02;;;;;;;;;43.33;27.00;;;;;1.08;60.22;100452.50;4959527;28;73256;-62
2023/12/02 04:11:28;;;;;;;;;38.50;26.25;;;;;1.03;60.52;100455.06;4951161;28;45732;-62
2023/12/02 04:13:53;;;;;;;;;50.25;25.25;;;;;0.98;60.61;100461.06;4973149;28;73055;-63
2023/12/02 04:16:18;;;;;;;;;50.75;29.50;;;;;0.94;60.83;100462.75;4960348;28;57310;-63
2023/12/02 04:18:44;;;;;;;;;45.00;28.00;;;;;0.93;60.86;100463.56;4975643;28;66164;-63
2023/12/02 04:21:09;;;;;;;;;36.25;25.50;;;;;0.91;61.06;100466.13;4962715;28;45278;-63
2023/12/02 04:23:38;;;;;;;;;42.75;27.75;;;;;0.85;61.10;100468.69;4960866;28;45707;-63
2023/12/02 04:26:03;;;;;;;;;34.00;24.75;;;;;0.78;61.37;100471.16;4959857;28;45437;-63
2023/12/02 04:28:28;;;;;;;;;39.25;27.25;;;;;0.78;61.48;100474.63;4959100;28;45497;-64
2023/12/02 04:30:54;;;;;;;;;37.00;27.00;;;;;0.78;61.48;100487.50;4961338;28;56056;-62
2023/12/02 04:33:19;;;;;;;;;40.75;22.00;;;;;0.79;61.60;100490.94;4959712;28;45503;-63
2023/12/02 04:35:45;;;;;;;;;41.25;29.25;;;;;0.75;61.57;100490.91;4961217;28;55517;-63
2023/12/02 04:38:12;;;;;;;;;29.00;22.50;;;;;0.73;61.92;100491.75;4959202;28;45283;-62
2023/12/02 04:40:37;;;;;;;;;38.75;27.25;;;;;0.76;62.35;100494.34;4959202;28;47140;-64
2023/12/02 04:43:03;;;;;;;;;36.75;26.50;;;;;0.75;62.53;100495.19;4961606;28;45401;-62
2023/12/02 04:45:28;;;;;;;;;36.25;23.00;;;;;0.75;62.90;100500.34;4958003;28;52143;-62
2023/12/02 04:47:53;;;;;;;;;39.00;24.75;;;;;0.74;62.90;100506.34;4959326;28;47070;-61
2023/12/02 04:50:19;;;;;;;;;25.50;20.25;;;;;0.74;62.80;100499.50;4960212;28;65694;-61
2023/12/02 04:52:44;;;;;;;;;36.75;23.00;;;;;0.73;62.65;100508.06;4958385;28;68165;-60
2023/12/02 04:55:09;;;;;;;;;37.33;27.67;;;;;0.75;62.98;100516.66;4954540;28;69159;-60
2023/12/02 04:57:35;;;;;;;;;42.75;26.00;;;;;0.76;62.68;100522.66;4973760;28;45349;-60
2023/12/02 05:00:00;;;;;;;;;45.00;31.00;;;;;0.73;62.77;100530.38;4961325;28;45273;-61
2023/12/02 05:02:26;;;;;;;;;36.50;23.00;;;;;0.68;62.99;100537.19;4958358;28;53899;-63
2023/12/02 05:04:51;;;;;;;;;44.33;25.00;;;;;0.63;63.10;100537.13;4956024;28;69021;-61
2023/12/02 05:07:16;;;;;;;;;45.67;26.67;;;;;0.61;62.84;100540.56;4952680;28;73182;-63
2023/12/02 05:09:42;;;;;;;;;23.25;12.75;;;;;0.58;63.13;100551.66;4961380;28;52953;-63
2023/12/02 05:12:08;;;;;;;;;42.25;28.75;;;;;0.52;63.13;100552.47;4957395;28;45349;-65
2023/12/02 05:14:34;;;;;;;;;37.75;26.00;;;;;0.51;63.31;100555.03;4960374;28;45606;-70
2023/12/02 05:16:59;;;;;;;;;43.50;26.50;;;;;0.49;63.13;100555.00;4959465;28;45398;-62
2023/12/02 05:19:25;;;;;;;;;33.25;26.75;;;;;0.49;63.37;100561.88;4959055;28;45962;-63
2023/12/02 05:21:50;;;;;;;;;42.33;21.33;;;;;0.45;63.45;100560.97;4960462;28;72972;-62
2023/12/02 05:24:18;;;;;;;;;44.33;27.67;;;;;0.47;63.58;100567.00;4959978;28;68235;-62
2023/12/02 05:26:44;;;;;;;;;24.75;21.50;;;;;0.47;64.11;100572.16;4952847;28;45477;-62
2023/12/02 05:29:09;;;;;;;;;32.50;22.25;;;;;0.47;63.88;100581.59;4958793;28;52507;-62
2023/12/02 05:31:37;;;;;;;;;32.00;28.67;;;;;0.41;64.15;100584.06;4974958;28;72766;-62
2023/12/02 05:34:02;;;;;;;;;34.25;22.25;;;;;0.41;63.97;100586.66;4961873;28;45437;-63
2023/12/02 05:36:28;;;;;;;;;42.25;27.00;;;;;0.38;63.98;100584.91;4958690;28;45510;-63
2023/12/02 05:38:53;;;;;;;;;24.75;18.75;;;;;0.34;64.09;100586.59;4950447;28;73686;-63
2023/12/02 05:41:19;;;;;;;;;36.67;27.00;;;;;0.31;64.10;100585.69;4950371;28;62254;-63
2023/12/02 05:43:44;;;;;;;;;29.00;22.50;;;;;0.27;64.16;100594.22;4968467;28;45419;-63
2023/12/02 05:46:19;;;;;;;;;46.67;29.00;;;;;0.23;64.54;100595.91;4959695;28;61479;-62
2023/12/02 05:48:44;;;;;;;;;44.25;29.00;;;;;0.25;64.30;100606.19;4963018;28;46019;-62
2023/12/02 05:51:12;;;;;;;;;37.75;24.50;;;;;0.21;64.42;100607.84;4957574;28;45404;-62
2023/12/02 05:53:38;;;;;;;;;47.50;28.00;;;;;0.23;64.53;100611.34;4960284;28;45481;-61
2023/12/02 05:56:03;;;;;;;;;45.00;30.50;;;;;0.23;64.76;100618.19;4955631;28;45670;-62
2023/12/02 05:58:30;;;;;;;;;41.25;33.00;;;;;0.21;64.72;100623.28;4956068;28;45599;-62
2023/12/02 06:00:55;;;;;;;;;41.00;29.00;;;;;0.20;64.84;100626.72;4956619;28;45609;-62
2023/12/02 06:03:20;;;;;;;;;37.33;25.00;;;;;0.19;64.80;100630.13;4956504;28;67545;-60
2023/12/02 06:05:46;;;;;;;;;43.00;26.00;;;;;0.21;65.04;100632.72;4955848;28;68981;-62
2023/12/02 06:08:11;;;;;;;;;44.00;30.50;;;;;0.23;64.80;100639.66;4959704;28;58623;-63
2023/12/02 06:10:37;;;;;;;;;45.75;28.25;;;;;0.24;65.30;100637.94;4959484;28;58099;-63
2023/12/02 06:13:02;;;;;;;;;38.25;27.75;;;;;0.24;65.78;100643.94;4959948;28;45351;-62
2023/12/02 06:15:28;;;;;;;;;42.00;30.33;;;;;0.24;65.53;100654.22;4958089;28;61032;-63
2023/12/02 06:17:56;;;;;;;;;47.67;32.00;;;;;0.24;65.57;100655.94;4959088;28;60714;-63
2023/12/02 06:20:24;;;;;;;;;33.75;25.75;;;;;0.24;65.62;100659.38;4972962;28;45363;-62
2023/12/02 06:22:50;;;;;;;;;39.50;18.00;;;;;0.25;65.33;100666.28;4961061;28;45215;-63
2023/12/02 06:25:15;;;;;;;;;40.50;30.75;;;;;0.22;65.38;100668.78;4960262;28;45474;-63
2023/12/02 06:27:41;;;;;;;;;42.25;28.50;;;;;0.20;65.61;100672.19;4961199;28;45930;-62
2023/12/02 06:30:07;;;;;;;;;45.75;28.50;;;;;0.18;65.52;100670.47;4957927;28;45289;-62
2023/12/02 06:32:32;;;;;;;;;52.00;31.50;;;;;0.20;65.67;100674.78;4957553;28;45520;-63
2023/12/02 06:34:57;;;;;;;;;47.00;35.00;;;;;0.16;65.53;100677.28;4959535;28;73074;-63
2023/12/02 06:37:24;;;;;;;;;47.00;33.67;;;;;0.17;65.58;100683.28;4960154;28;74481;-62
2023/12/02 06:39:49;;;;;;;;;45.00;30.50;;;;;0.14;65.66;100683.25;4960420;28;45413;-62
2023/12/02 06:42:15;;;;;;;;;39.75;30.50;;;;;0.15;65.81;100692.72;4961403;28;45337;-63
2023/12/02 06:44:41;;;;;;;;;39.00;30.00;;;;;0.11;65.81;100686.66;4955378;28;70899;-63
2023/12/02 06:47:07;;;;;;;;;43.50;33.00;;;;;0.07;65.94;100692.59;4960476;28;46147;-63
2023/12/02 06:49:32;;;;;;;;;44.67;32.33;;;;;0.07;65.75;100699.44;4959004;28;72329;-62
2023/12/02 06:51:57;;;;;;;;;37.75;26.25;;;;;0.05;65.91;100699.41;4958401;28;45493;-63
2023/12/02 06:54:23;;;;;;;;;55.67;30.67;;;;;0.05;65.88;100694.25;4959598;28;64439;-63
2023/12/02 06:56:48;;;;;;;;;38.33;28.67;;;;;0.05;66.04;100698.53;4959674;28;75839;-62
2023/12/02 06:59:13;;;;;;;;;43.75;31.50;;;;;0.05;66.02;100712.28;4959901;28;45203;-62
2023/12/02 07:01:40;;;;;;;;;38.33;21.67;;;;;0.04;65.94;100714.84;4957762;28;67838;-62
2023/12/02 07:04:05;;;;;;;;;56.25;30.50;;;;;0.03;65.93;100718.25;4960068;28;45951;-61
2023/12/02 07:06:31;;;;;;;;;47.50;32.50;;;;;0.01;66.29;100727.66;4954498;28;52223;-60
2023/12/02 07:08:56;;;;;;;;;52.50;32.50;;;;;-0.02;66.40;100723.31;4974151;28;45262;-61
2023/12/02 07:11:22;;;;;;;;;44.25;34.50;;;;;0.02;65.95;100729.38;4959557;28;45423;-63
2023/12/02 07:13:48;;;;;;;;;51.25;28.75;;;;;-0.09;66.42;100727.50;4958103;28;45425;-62
2023/12/02 07:16:13;;;;;;;;;44.00;33.75;;;;;-0.03;66.45;100735.31;4960507;28;45432;-62
2023/12/02 07:18:39;;;;;;;;;54.25;36.00;;;;;-0.02;66.33;100741.31;4959443;28;45553;-62
2023/12/02 07:21:05;;;;;;;;;45.00;32.75;;;;;-0.01;66.30;100746.50;4954904;28;45440;-62
2023/12/02 07:23:31;;;;;;;;;46.50;31.25;;;;;0.00;66.48;100749.94;4958115;28;45639;-62
2023/12/02 07:25:56;;;;;;;;;54.00;34.50;;;;;0.02;66.50;100744.81;4973540;28;47684;-62
2023/12/02 07:28:22;;;;;;;;;53.00;36.25;;;;;0.03;66.34;100755.13;4956855;28;45261;-62
2023/12/02 07:30:50;;;;;;;;;49.00;33.50;;;;;0.00;66.15;100760.25;4958088;28;45431;-62
2023/12/02 07:33:18;;;;;;;;;38.50;26.00;;;;;-0.01;66.41;100759.34;4959485;28;45499;-62
2023/12/02 07:35:43;;;;;;;;;47.00;36.75;;;;;-0.02;66.43;100764.47;4966651;28;45424;-63
2023/12/02 07:38:08;;;;;;;;;50.75;33.50;;;;;0.00;66.37;100762.81;4974799;28;46905;-63
2023/12/02 07:40:35;;;;;;;;;42.33;31.33;;;;;0.02;66.30;100768.84;4953818;28;69239;-62
2023/12/02 07:43:00;;;;;;;;;41.75;31.00;;;;;0.02;66.11;100771.41;4972807;28;45751;-63
2023/12/02 07:45:25;;;;;;;;;55.75;32.00;;;;;0.02;66.60;100766.28;4959868;28;46412;-62
2023/12/02 07:47:51;;;;;;;;;52.67;36.67;;;;;0.01;66.53;100773.97;4958642;28;72309;-63
2023/12/02 07:50:16;;;;;;;;;47.67;33.33;;;;;-0.03;66.69;100771.31;4957327;28;68328;-63
2023/12/02 07:52:42;;;;;;;;;48.00;37.33;;;;;-0.01;66.47;100776.50;4958738;28;73170;-63
2023/12/02 07:55:07;;;;;;;;;45.25;34.75;;;;;-0.06;66.34;100767.84;4959547;28;46452;-63
2023/12/02 07:57:33;;;;;;;;;46.00;32.50;;;;;-0.04;66.44;100779.88;4971336;28;45413;-63
2023/12/02 07:59:59;;;;;;;;;52.50;38.50;;;;;0.02;66.49;100778.25;4956245;28;45531;-63
2023/12/02 08:02:24;;;;;;;;;51.75;32.25;;;;;0.01;66.54;100790.25;4953216;28;45559;-62
2023/12/02 08:04:50;;;;;;;;;50.50;33.00;;;;;-0.01;66.77;100797.94;4958968;28;45517;-62
2023/12/02 08:07:15;;;;;;;;;44.00;30.25;;;;;-0.03;66.66;100802.19;4964996;28;45300;-62
2023/12/02 08:09:40;;;;;;;;;62.00;42.00;;;;;-0.04;66.89;100813.31;4960709;28;45452;-60
2023/12/02 08:12:06;;;;;;;;;52.33;35.00;;;;;-0.03;66.53;100807.34;4962432;28;67492;-59
2023/12/02 08:14:31;;;;;;;;;49.25;35.50;;;;;0.01;66.82;100809.97;4959427;28;46618;-61
2023/12/02 08:16:56;;;;;;;;;66.00;36.00;;;;;0.04;66.87;100820.31;4961768;28;70289;-63
2023/12/02 08:19:22;;;;;;;;;53.00;38.67;;;;;0.06;67.00;100813.50;4977079;28;68865;-61
2023/12/02 08:21:47;;;;;;;;;55.33;34.67;;;;;0.11;67.00;100822.16;4960509;28;67823;-63
2023/12/02 08:24:13;;;;;;;;;49.00;37.00;;;;;0.17;66.86;100825.69;4961606;28;46209;-61
2023/12/02 08:26:38;;;;;;;;;61.00;35.50;;;;;0.19;66.67;100836.00;4960463;28;45388;-61
2023/12/02 08:29:04;;;;;;;;;53.25;40.50;;;;;0.21;66.85;100833.47;4977889;28;45370;-62
2023/12/02 08:31:30;;;;;;;;;54.33;36.67;;;;;0.24;66.57;100844.69;4960249;28;55662;-62
2023/12/02 08:33:55;;;;;;;;;61.25;35.50;;;;;0.24;66.65;100843.81;4976692;28;47140;-62
2023/12/02 08:36:21;;;;;;;;;60.00;42.50;;;;;0.23;66.75;100845.53;4959228;28;45326;-63
2023/12/02 08:38:46;;;;;;;;;56.67;39.00;;;;;0.25;66.64;100849.00;4960969;28;68997;-62
2023/12/02 08:41:11;;;;;;;;;56.25;39.75;;;;;0.26;66.65;100853.28;4981791;28;45584;-62
2023/12/02 08:43:37;;;;;;;;;45.75;33.25;;;;;0.26;66.41;100862.72;4962621;28;47358;-62
2023/12/02 08:46:02;;;;;;;;;43.75;37.25;;;;;0.22;66.48;100859.22;4962382;28;45138;-62
2023/12/02 08:48:28;;;;;;;;;50.00;32.75;;;;;0.26;66.41;100865.28;4950485;28;45168;-63
2023/12/02 08:50:53;;;;;;;;;45.25;39.00;;;;;0.28;66.59;100869.63;4956137;28;67487;-62
2023/12/02 08:53:19;;;;;;;;;53.25;41.00;;;;;0.27;66.41;100865.31;4951721;28;56123;-62
2023/12/02 08:55:44;;;;;;;;;46.00;30.50;;;;;0.27;66.84;100869.63;4956247;28;68963;-62
2023/12/02 08:58:09;;;;;;;;;58.75;33.75;;;;;0.31;66.63;100879.13;4964406;28;45277;-62
2023/12/02 09:00:35;;;;;;;;;55.50;38.00;;;;;0.30;66.22;100883.41;4960038;28;71951;-62
2023/12/02 09:03:00;;;;;;;;;53.33;30.00;;;;;0.30;66.44;100883.41;4958723;28;73114;-62
2023/12/02 09:05:25;;;;;;;;;50.50;36.25;;;;;0.35;66.55;100879.22;4960425;28;45394;-62
2023/12/02 09:07:51;;;;;;;;;43.50;26.25;;;;;0.44;66.43;100893.06;4945283;28;65405;-61
2023/12/02 09:10:16;;;;;;;;;35.67;28.33;;;;;0.49;66.50;100897.44;4960733;28;61620;-62
2023/12/02 09:12:42;;;;;;;;;47.00;37.50;;;;;0.55;66.42;100901.84;4962157;28;45258;-60
2023/12/02 09:15:08;;;;;;;;;58.00;34.00;;;;;0.55;66.60;100900.13;4952766;28;45366;-61
2023/12/02 09:18:09;;;;;;;;;34.75;22.25;;;;;0.60;66.29;100905.34;4963104;28;45467;-60
2023/12/02 09:20:46;;;;;;;;;54.50;32.50;;;;;0.69;66.42;100910.66;4958678;28;45264;-59
2023/12/02 09:23:13;;;;;;;;;61.50;39.00;;;;;0.75;66.26;100915.91;4959091;28;45528;-60
2023/12/02 09:25:39;;;;;;;;;45.00;33.75;;;;;0.74;66.38;100910.72;4976700;28;45653;-62
2023/12/02 09:28:08;;;;;;;;;46.25;35.50;;;;;0.86;66.18;100928.09;4962024;28;45575;-61
2023/12/02 09:30:35;;;;;;;;;53.00;35.25;;;;;0.89;66.66;100928.13;4961749;28;45569;-61
2023/12/02 09:33:01;;;;;;;;;49.00;40.50;;;;;0.92;66.20;100928.16;4957921;28;45516;-62
2023/12/02 09:35:27;;;;;;;;;54.25;36.00;;;;;0.92;66.03;100926.47;4960064;28;46645;-67
2023/12/02 09:37:57;;;;;;;;;46.50;30.50;;;;;1.02;66.18;100936.91;4943631;28;45293;-63
2023/12/02 09:40:26;;;;;;;;;58.25;38.00;;;;;1.05;65.93;100931.81;4960516;28;45459;-64
2023/12/02 09:43:05;;;;;;;;;57.75;38.00;;;;;1.07;66.06;100928.41;4960055;28;46180;-64
2023/12/02 09:45:35;;;;;;;;;49.75;36.50;;;;;1.18;65.87;100940.59;4970200;28;45875;-65
2023/12/02 09:48:19;;;;;;;;;61.25;36.50;;;;;1.22;65.66;100942.38;4955992;28;45369;-63
2023/12/02 09:51:02;;;;;;;;;47.50;39.00;;;;;1.21;65.21;100940.66;4955806;28;45416;-63
2023/12/02 09:54:06;;;;;;;;;47.50;35.25;;;;;1.19;65.35;100942.31;4976768;28;45237;-64
2023/12/02 09:56:41;;;;;;;;;56.25;43.25;;;;;1.18;65.48;100949.19;4975421;28;46040;-63
2023/12/02 09:59:57;;;;;;;;;54.25;39.50;;;;;1.18;65.59;100944.03;4976847;28;45454;-63
2023/12/02 10:02:43;;;;;;;;;52.00;33.25;;;;;1.22;65.56;100947.53;4973060;28;45369;-62
2023/12/02 10:05:10;;;;;;;;;53.00;39.50;;;;;1.22;65.24;100948.41;4974580;28;46601;-63
2023/12/02 10:08:03;;;;;;;;;61.25;42.25;;;;;1.29;65.07;100954.50;4971250;28;45432;-62
2023/12/02 10:10:35;;;;;;;;;51.25;35.50;;;;;1.33;64.96;100951.13;4960719;28;45428;-62
2023/12/02 10:13:36;;;;;;;;;84.50;56.25;;;;;1.45;65.00;100960.75;4959568;28;45563;-64
2023/12/02 10:16:05;;;;;;;;;43.50;33.75;;;;;1.51;64.92;100955.69;4954292;28;47441;-65
2023/12/02 10:18:37;;;;;;;;;47.75;33.50;;;;;1.56;64.50;100953.16;4960470;28;45429;-62
2023/12/02 10:21:05;;;;;;;;;42.00;34.25;;;;;1.68;64.77;100954.19;4961296;28;45346;-62
2023/12/02 10:23:51;;;;;;;;;45.75;33.75;;;;;1.77;64.47;100956.03;4959285;28;45357;-63
2023/12/02 10:26:28;;;;;;;;;47.50;32.50;;;;;1.82;64.12;100956.94;4958516;28;45514;-65
2023/12/02 10:29:18;;;;;;;;;49.50;38.00;;;;;1.90;63.97;100959.63;4959050;28;45810;-62
2023/12/02 10:31:51;;;;;;;;;48.50;33.75;;;;;1.93;63.62;100951.03;4955236;28;45443;-63
2023/12/02 10:34:22;;;;;;;;;55.75;36.00;;;;;1.97;63.62;100953.69;4958136;28;45383;-62
2023/12/02 10:36:50;;;;;;;;;46.50;30.00;;;;;2.02;63.60;100961.47;4957534;28;47310;-63
2023/12/02 10:39:24;;;;;;;;;41.75;36.00;;;;;2.03;63.34;100960.63;4959858;28;45325;-63
2023/12/02 10:42:18;;;;;;;;;63.00;37.50;;;;;2.05;63.55;100962.38;4958343;28;45217;-63
2023/12/02 10:44:45;;;;;;;;;56.00;36.25;;;;;2.10;63.08;100962.44;4958112;28;45665;-64
2023/12/02 10:47:11;;;;;;;;;59.00;42.50;;;;;2.13;63.12;100962.47;4948452;28;68731;-64
2023/12/02 10:49:37;;;;;;;;;60.75;43.00;;;;;2.20;63.01;100968.56;4955080;28;45600;-64
2023/12/02 10:52:04;;;;;;;;;48.00;38.25;;;;;2.27;62.76;100960.91;4944013;28;45383;-63
2023/12/02 10:54:33;;;;;;;;;50.75;36.00;;;;;2.35;62.92;100970.44;4957424;28;45412;-62
2023/12/02 10:57:08;;;;;;;;;55.00;41.50;;;;;2.44;63.07;100963.66;4958944;28;47143;-63
2023/12/02 10:59:46;;;;;;;;;55.75;37.50;;;;;2.51;62.65;100961.13;4975199;28;47066;-63
2023/12/02 11:02:37;;;;;;;;;60.50;38.00;;;;;2.60;62.65;100967.25;4943196;28;47730;-63
2023/12/02 11:05:20;;;;;;;;;59.00;40.00;;;;;2.66;62.19;100964.72;4961545;28;45407;-71
2023/12/02 11:07:52;;;;;;;;;46.00;33.00;;;;;2.69;61.83;100970.75;4958516;28;45482;-62
2023/12/02 11:10:30;;;;;;;;;55.25;37.75;;;;;2.68;61.45;100964.75;4957901;28;46182;-63
2023/12/02 11:13:00;;;;;;;;;59.00;34.75;;;;;2.71;61.56;100967.38;4975618;28;45338;-63
2023/12/02 11:15:27;;;;;;;;;60.50;39.50;;;;;2.71;61.48;100962.19;4972447;28;45407;-62
2023/12/02 11:18:03;;;;;;;;;66.75;42.50;;;;;2.76;61.31;100970.84;4929056;28;47789;-65